Monday, January 21, 2019, 5:31 PM EST
Back to Local

KACY, Atlantic City International

Location: Absecon, NJ, United States Lat: 39.467
Local Time: 5:31 PM EST (22:31 GMT) Lon: -74.583
Time Zone: US/Eastern Elev: 75 ft

Show me the last for .
Show Coded

Time T Td Feel RH Dir Speed Gust Alt SLP Vis Weather Sky Remarks
2019-01-21 16:54 17 -6 -4 34 300° 24 37 30.25 30.25 10 CLR Peak wind: 42 mph (37 kts) from 310° at 07 min
2019-01-21 15:54 18 -8 -4 30 310° 31 43 30.22 30.22 10 CLR Peak wind: 42 mph (37 kts) from 310° at 01 min
2019-01-21 14:54 18 -5 -4 34 300° 23 44 30.18 30.19 10 CLR Peak wind: 46 mph (40 kts) from 330° at 58 min
2019-01-21 13:54 19 -4 -2 35 300° 26 40 30.17 30.17 10 CLR Peak wind: 43 mph (38 kts) from 320° at 43 min
2019-01-21 12:54 18 -4 -3 36 300° 28 38 30.15 30.16 10 CLR Peak wind: 46 mph (40 kts) from 290° at 23 min
6-hr Min Temp (1pm): 10.0°F
6-hr Max Temp (1pm): 18.0°F
2019-01-21 11:54 16 -5 -7 38 290° 29 40 30.14 30.14 10 CLR Peak wind: 50 mph (44 kts) from 280° at 34 min
2019-01-21 10:54 15 -5 -8 39 310° 31 41 30.14 30.14 10 CLR Peak wind: 44 mph (39 kts) from 300° at 23 min
2019-01-21 09:54 13 -5 -12 43 300° 28 44 30.12 30.13 10 CLR Peak wind: 44 mph (39 kts) from 300° at 38 min
2019-01-21 08:54 11 -5 -14 47 290° 28 40 30.09 30.09 10 CLR Peak wind: 40 mph (35 kts) from 290° at 14 min
2019-01-21 07:54 10 -5 -13 49 300° 24 35 30.06 30.07 10 CLR Peak wind: 37 mph (33 kts) from 280° at 29 min
2019-01-21 06:54 10 -4 -14 52 300° 25 36 30.03 30.03 10 CLR Peak wind: 37 mph (33 kts) from 290° at 57 min
24-hr Precip Total (7am): 0.38"
6-hr Min Temp (7am): 10.0°F
6-hr Max Temp (7am): 17.1°F
2019-01-21 05:54 11 -3 -13 52 290° 21 36 30.00 30.00 10 CLR Peak wind: 35 mph (31 kts) from 290° at 49 min
2019-01-21 04:54 12 -2 -8 52 290° 16 26 29.98 29.98 10 CLR Peak wind: 39 mph (34 kts) from 310° at 00 min
2019-01-21 03:54 13 -1 -9 53 290° 20 33 29.94 29.94 10 CLR Peak wind: 37 mph (33 kts) from 300° at 21 min
2019-01-21 02:54 14 -1 -9 50 310° 25 37 29.92 29.93 10 CLR Peak wind: 37 mph (33 kts) from 290° at 39 min
2019-01-21 01:54 16 1 -6 50 310° 23 36 29.90 29.90 10 CLR Peak wind: 42 mph (37 kts) from 280° at 37 min
2019-01-21 00:54 17 3 -5 53 310° 18 40 29.87 29.87 10 CLR Peak wind: 40 mph (35 kts) from 330° at 45 min
6-hr Min Temp (1am): 17.1°F
6-hr Max Temp (1am): 24.1°F
2019-01-20 23:54 18 5 -2 56 310° 20 33 29.84 29.84 10 FEW041 Peak wind: 42 mph (37 kts) from 310° at 35 min
24-hr Min Temp (12am): 18.0°F
24-hr Max Temp (12am): 55.0°F
2019-01-20 22:54 20 7 -1 56 300° 23 43 29.80 29.80 10 OVC040 Peak wind: 44 mph (39 kts) from 300° at 39 min
2019-01-20 21:54 21 9 2 58 330° 21 31 29.76 29.76 10 SCT039 Peak wind: 39 mph (34 kts) from 330° at 56 min
2019-01-20 20:54 22 10 1 59 320° 30 43 29.72 29.72 10 CLR Peak wind: 46 mph (40 kts) from 320° at 02 min
2019-01-20 19:54 23 12 3 62 310° 28 39 29.67 29.67 10 CLR Peak wind: 47 mph (41 kts) from 320° at 37 min
2019-01-20 18:54 24 13 5 61 320° 31 41 29.64 29.64 10 CLR Peak wind: 44 mph (39 kts) from 320° at 41 min
6-hr Min Temp (7pm): 24.1°F
6-hr Max Temp (7pm): 45.0°F
2019-01-20 17:54 26 16 7 65 310° 26 43 29.58 29.58 10 CLR Peak wind: 43 mph (38 kts) from 310° at 40 min

Support USWX by starting your Amazon purchase here.